sensor_id;sensor_type;location;lat;lon;timestamp;temperature;humidity
40848;DHT22;26570;50.962;5.340;2023-04-28T00:06:20;12.00;99.90
40848;DHT22;26570;50.962;5.340;2023-04-28T00:09:21;12.00;99.90
40848;DHT22;26570;50.962;5.340;2023-04-28T00:12:20;12.10;99.90
40848;DHT22;26570;50.962;5.340;2023-04-28T00:26:52;12.00;99.90
40848;DHT22;26570;50.962;5.340;2023-04-28T00:30:49;11.80;99.90
40848;DHT22;26570;50.962;5.340;2023-04-28T00:38:10;12.00;99.90
40848;DHT22;26570;50.962;5.340;2023-04-28T00:41:33;11.90;99.90
40848;DHT22;26570;50.962;5.340;2023-04-28T00:45:18;12.40;99.90
40848;DHT22;26570;50.962;5.340;2023-04-28T00:53:14;11.80;99.90
40848;DHT22;26570;50.962;5.340;2023-04-28T00:56:41;11.60;99.90
40848;DHT22;26570;50.962;5.340;2023-04-28T00:59:51;11.60;99.90
40848;DHT22;26570;50.962;5.340;2023-04-28T01:02:55;11.50;99.90
40848;DHT22;26570;50.962;5.340;2023-04-28T01:06:16;11.60;99.90
40848;DHT22;26570;50.962;5.340;2023-04-28T01:09:41;11.50;99.90
40848;DHT22;26570;50.962;5.340;2023-04-28T01:21:33;11.70;99.90
40848;DHT22;26570;50.962;5.340;2023-04-28T01:24:52;11.50;99.90
40848;DHT22;26570;50.962;5.340;2023-04-28T01:28:51;11.10;99.90
40848;DHT22;26570;50.962;5.340;2023-04-28T01:32:23;11.30;99.90
40848;DHT22;26570;50.962;5.340;2023-04-28T01:36:00;11.40;99.90
40848;DHT22;26570;50.962;5.340;2023-04-28T01:46:39;11.30;99.90
40848;DHT22;26570;50.962;5.340;2023-04-28T01:50:05;11.40;99.90
40848;DHT22;26570;50.962;5.340;2023-04-28T01:53:36;11.40;99.90
40848;DHT22;26570;50.962;5.340;2023-04-28T02:04:00;11.20;99.90
40848;DHT22;26570;50.962;5.340;2023-04-28T02:08:10;11.40;99.90
40848;DHT22;26570;50.962;5.340;2023-04-28T02:19:26;11.40;99.90
40848;DHT22;26570;50.962;5.340;2023-04-28T02:23:10;11.30;99.90
40848;DHT22;26570;50.962;5.340;2023-04-28T02:26:58;11.20;99.90
40848;DHT22;26570;50.962;5.340;2023-04-28T02:30:23;11.00;99.90
40848;DHT22;26570;50.962;5.340;2023-04-28T02:34:08;11.00;99.90
40848;DHT22;26570;50.962;5.340;2023-04-28T02:41:20;10.90;99.90
40848;DHT22;26570;50.962;5.340;2023-04-28T02:44:44;11.10;99.90
40848;DHT22;26570;50.962;5.340;2023-04-28T02:52:34;10.90;99.90
40848;DHT22;26570;50.962;5.340;2023-04-28T02:55:59;11.20;99.90
40848;DHT22;26570;50.962;5.340;2023-04-28T03:00:03;10.70;99.90
40848;DHT22;26570;50.962;5.340;2023-04-28T03:03:49;10.60;99.90
40848;DHT22;26570;50.962;5.340;2023-04-28T03:07:42;10.70;99.90
40848;DHT22;26570;50.962;5.340;2023-04-28T03:11:07;10.60;99.90
40848;DHT22;26570;50.962;5.340;2023-04-28T03:18:38;10.50;99.90
40848;DHT22;26570;50.962;5.340;2023-04-28T03:21:58;10.70;99.90
40848;DHT22;26570;50.962;5.340;2023-04-28T03:29:21;11.20;99.90
40848;DHT22;26570;50.962;5.340;2023-04-28T03:37:21;10.90;99.90
40848;DHT22;26570;50.962;5.340;2023-04-28T03:48:22;11.20;99.90
40848;DHT22;26570;50.962;5.340;2023-04-28T03:51:42;11.20;99.90
40848;DHT22;26570;50.962;5.340;2023-04-28T03:59:05;11.40;99.90
40848;DHT22;26570;50.962;5.340;2023-04-28T04:10:49;11.50;99.90
40848;DHT22;26570;50.962;5.340;2023-04-28T04:14:32;11.50;99.90
40848;DHT22;26570;50.962;5.340;2023-04-28T04:18:09;11.30;99.90
40848;DHT22;26570;50.962;5.340;2023-04-28T04:21:59;11.40;99.90
40848;DHT22;26570;50.962;5.340;2023-04-28T04:25:14;11.90;99.90
40848;DHT22;26570;50.962;5.340;2023-04-28T04:28:50;11.70;99.90
40848;DHT22;26570;50.962;5.340;2023-04-28T04:32:01;11.60;99.90
40848;DHT22;26570;50.962;5.340;2023-04-28T04:36:00;11.60;99.90
40848;DHT22;26570;50.962;5.340;2023-04-28T04:39:36;12.00;99.90
40848;DHT22;26570;50.962;5.340;2023-04-28T04:42:54;11.80;99.90
40848;DHT22;26570;50.962;5.340;2023-04-28T04:46:37;11.90;99.90
40848;DHT22;26570;50.962;5.340;2023-04-28T04:50:01;12.10;99.90
40848;DHT22;26570;50.962;5.340;2023-04-28T04:53:37;12.00;99.90
40848;DHT22;26570;50.962;5.340;2023-04-28T04:57:18;11.80;99.90
40848;DHT22;26570;50.962;5.340;2023-04-28T05:00:59;11.80;99.90
40848;DHT22;26570;50.962;5.340;2023-04-28T05:04:17;11.80;99.90
40848;DHT22;26570;50.962;5.340;2023-04-28T05:07:52;12.20;99.90
40848;DHT22;26570;50.962;5.340;2023-04-28T05:10:52;12.20;99.90
40848;DHT22;26570;50.962;5.340;2023-04-28T05:14:03;12.10;99.90
40848;DHT22;26570;50.962;5.340;2023-04-28T05:17:24;12.10;99.90
40848;DHT22;26570;50.962;5.340;2023-04-28T05:24:17;12.10;99.90
40848;DHT22;26570;50.962;5.340;2023-04-28T05:27:32;12.30;99.90
40848;DHT22;26570;50.962;5.340;2023-04-28T05:30:32;12.40;99.90
40848;DHT22;26570;50.962;5.340;2023-04-28T05:33:53;12.90;99.90
40848;DHT22;26570;50.962;5.340;2023-04-28T05:37:14;12.50;99.90
40848;DHT22;26570;50.962;5.340;2023-04-28T05:40:36;12.60;99.90
40848;DHT22;26570;50.962;5.340;2023-04-28T05:44:03;12.80;99.90
40848;DHT22;26570;50.962;5.340;2023-04-28T05:47:31;12.80;99.90
40848;DHT22;26570;50.962;5.340;2023-04-28T05:50:35;12.50;99.90
40848;DHT22;26570;50.962;5.340;2023-04-28T05:54:02;12.80;99.90
40848;DHT22;26570;50.962;5.340;2023-04-28T05:57:19;12.90;99.90
40848;DHT22;26570;50.962;5.340;2023-04-28T06:00:38;12.80;99.90
40848;DHT22;26570;50.962;5.340;2023-04-28T06:03:48;12.80;99.90
40848;DHT22;26570;50.962;5.340;2023-04-28T06:06:50;13.00;99.90
40848;DHT22;26570;50.962;5.340;2023-04-28T06:10:10;13.20;99.90
40848;DHT22;26570;50.962;5.340;2023-04-28T06:13:09;12.90;99.90
40848;DHT22;26570;50.962;5.340;2023-04-28T06:15:57;13.10;99.90
40848;DHT22;26570;50.962;5.340;2023-04-28T06:19:07;13.20;99.90
40848;DHT22;26570;50.962;5.340;2023-04-28T06:22:50;13.30;99.90
40848;DHT22;26570;50.962;5.340;2023-04-28T06:26:12;13.50;99.90
40848;DHT22;26570;50.962;5.340;2023-04-28T06:30:12;13.60;99.90
40848;DHT22;26570;50.962;5.340;2023-04-28T06:33:24;13.80;99.90
40848;DHT22;26570;50.962;5.340;2023-04-28T06:40:37;13.90;99.90
40848;DHT22;26570;50.962;5.340;2023-04-28T06:44:09;13.70;99.90
40848;DHT22;26570;50.962;5.340;2023-04-28T06:51:02;14.00;99.90
40848;DHT22;26570;50.962;5.340;2023-04-28T06:54:33;14.00;99.90
40848;DHT22;26570;50.962;5.340;2023-04-28T06:57:51;14.20;99.90
40848;DHT22;26570;50.962;5.340;2023-04-28T07:01:08;14.20;99.90
40848;DHT22;26570;50.962;5.340;2023-04-28T07:08:24;14.30;99.90
40848;DHT22;26570;50.962;5.340;2023-04-28T07:11:21;14.30;99.90
40848;DHT22;26570;50.962;5.340;2023-04-28T07:14:07;14.30;99.90
40848;DHT22;26570;50.962;5.340;2023-04-28T07:16:52;14.40;99.90
40848;DHT22;26570;50.962;5.340;2023-04-28T07:19:46;14.40;99.90
40848;DHT22;26570;50.962;5.340;2023-04-28T07:22:33;14.40;99.90
40848;DHT22;26570;50.962;5.340;2023-04-28T07:25:18;14.40;99.90
40848;DHT22;26570;50.962;5.340;2023-04-28T07:28:04;14.40;99.90
40848;DHT22;26570;50.962;5.340;2023-04-28T07:30:49;14.50;99.90
40848;DHT22;26570;50.962;5.340;2023-04-28T07:33:34;14.60;99.90
40848;DHT22;26570;50.962;5.340;2023-04-28T07:36:21;14.80;99.90
40848;DHT22;26570;50.962;5.340;2023-04-28T07:39:07;14.80;99.90
40848;DHT22;26570;50.962;5.340;2023-04-28T07:41:52;14.80;99.90
40848;DHT22;26570;50.962;5.340;2023-04-28T07:44:37;14.90;99.90
40848;DHT22;26570;50.962;5.340;2023-04-28T07:47:22;14.90;99.90
40848;DHT22;26570;50.962;5.340;2023-04-28T07:50:08;14.80;99.90
40848;DHT22;26570;50.962;5.340;2023-04-28T07:52:52;14.80;99.90
40848;DHT22;26570;50.962;5.340;2023-04-28T07:55:38;14.90;99.90
40848;DHT22;26570;50.962;5.340;2023-04-28T07:58:25;15.10;99.90
40848;DHT22;26570;50.962;5.340;2023-04-28T08:01:09;15.50;99.90
40848;DHT22;26570;50.962;5.340;2023-04-28T08:03:56;15.30;99.90
40848;DHT22;26570;50.962;5.340;2023-04-28T08:06:42;15.60;99.90
40848;DHT22;26570;50.962;5.340;2023-04-28T08:09:27;15.90;99.90
40848;DHT22;26570;50.962;5.340;2023-04-28T08:12:13;16.10;99.90
40848;DHT22;26570;50.962;5.340;2023-04-28T08:14:59;16.20;99.90
40848;DHT22;26570;50.962;5.340;2023-04-28T08:17:44;16.10;99.90
40848;DHT22;26570;50.962;5.340;2023-04-28T08:20:29;16.10;99.90
40848;DHT22;26570;50.962;5.340;2023-04-28T08:23:16;16.10;99.90
40848;DHT22;26570;50.962;5.340;2023-04-28T08:26:00;16.20;99.90
40848;DHT22;26570;50.962;5.340;2023-04-28T08:28:46;16.30;99.90
40848;DHT22;26570;50.962;5.340;2023-04-28T08:31:31;16.00;99.90
40848;DHT22;26570;50.962;5.340;2023-04-28T08:34:16;16.10;99.90
40848;DHT22;26570;50.962;5.340;2023-04-28T08:37:03;16.20;99.90
40848;DHT22;26570;50.962;5.340;2023-04-28T08:39:48;16.30;99.90
40848;DHT22;26570;50.962;5.340;2023-04-28T08:42:34;16.30;99.90
40848;DHT22;26570;50.962;5.340;2023-04-28T08:45:19;16.30;99.90
40848;DHT22;26570;50.962;5.340;2023-04-28T08:48:11;16.40;99.90
40848;DHT22;26570;50.962;5.340;2023-04-28T08:50:59;16.50;99.90
40848;DHT22;26570;50.962;5.340;2023-04-28T08:53:49;16.40;99.90
40848;DHT22;26570;50.962;5.340;2023-04-28T08:56:37;16.40;99.90
40848;DHT22;26570;50.962;5.340;2023-04-28T08:59:22;16.30;99.90
40848;DHT22;26570;50.962;5.340;2023-04-28T09:02:08;16.80;99.90
40848;DHT22;26570;50.962;5.340;2023-04-28T09:04:53;18.20;99.90
40848;DHT22;26570;50.962;5.340;2023-04-28T09:07:40;19.40;99.90
40848;DHT22;26570;50.962;5.340;2023-04-28T09:10:25;20.40;99.90
40848;DHT22;26570;50.962;5.340;2023-04-28T09:13:24;20.30;99.90
40848;DHT22;26570;50.962;5.340;2023-04-28T09:16:11;19.60;99.90
40848;DHT22;26570;50.962;5.340;2023-04-28T09:18:57;18.90;99.90
40848;DHT22;26570;50.962;5.340;2023-04-28T09:22:00;18.80;99.90
40848;DHT22;26570;50.962;5.340;2023-04-28T09:24:49;18.70;99.90
40848;DHT22;26570;50.962;5.340;2023-04-28T09:27:37;18.40;99.90
40848;DHT22;26570;50.962;5.340;2023-04-28T09:30:37;18.30;99.90
40848;DHT22;26570;50.962;5.340;2023-04-28T09:33:24;18.30;99.90
40848;DHT22;26570;50.962;5.340;2023-04-28T09:36:09;18.30;99.90
40848;DHT22;26570;50.962;5.340;2023-04-28T09:38:56;18.50;99.90
40848;DHT22;26570;50.962;5.340;2023-04-28T09:41:43;18.50;99.90
40848;DHT22;26570;50.962;5.340;2023-04-28T09:44:29;18.60;99.90
40848;DHT22;26570;50.962;5.340;2023-04-28T09:47:20;18.50;99.90
40848;DHT22;26570;50.962;5.340;2023-04-28T09:50:10;18.50;99.90
40848;DHT22;26570;50.962;5.340;2023-04-28T09:52:58;18.50;99.90
40848;DHT22;26570;50.962;5.340;2023-04-28T09:55:44;18.60;99.90
40848;DHT22;26570;50.962;5.340;2023-04-28T09:58:30;18.50;99.90
40848;DHT22;26570;50.962;5.340;2023-04-28T10:01:19;18.60;99.90
40848;DHT22;26570;50.962;5.340;2023-04-28T10:04:04;18.60;99.90
40848;DHT22;26570;50.962;5.340;2023-04-28T10:06:50;19.00;99.90
40848;DHT22;26570;50.962;5.340;2023-04-28T10:09:35;19.30;99.90
40848;DHT22;26570;50.962;5.340;2023-04-28T10:12:22;19.20;99.90
40848;DHT22;26570;50.962;5.340;2023-04-28T10:15:09;19.10;99.90
40848;DHT22;26570;50.962;5.340;2023-04-28T10:17:55;18.80;99.90
40848;DHT22;26570;50.962;5.340;2023-04-28T10:20:43;18.60;99.90
40848;DHT22;26570;50.962;5.340;2023-04-28T10:23:46;18.40;99.90
40848;DHT22;26570;50.962;5.340;2023-04-28T10:29:38;18.50;99.90
40848;DHT22;26570;50.962;5.340;2023-04-28T10:32:24;18.60;99.90
40848;DHT22;26570;50.962;5.340;2023-04-28T10:38:18;18.50;99.90
40848;DHT22;26570;50.962;5.340;2023-04-28T10:41:31;18.20;99.90
40848;DHT22;26570;50.962;5.340;2023-04-28T10:47:14;18.50;99.90
40848;DHT22;26570;50.962;5.340;2023-04-28T10:52:47;19.00;99.90
40848;DHT22;26570;50.962;5.340;2023-04-28T10:55:33;19.40;99.90
40848;DHT22;26570;50.962;5.340;2023-04-28T11:04:06;20.30;99.90
40848;DHT22;26570;50.962;5.340;2023-04-28T11:07:10;20.70;99.90
40848;DHT22;26570;50.962;5.340;2023-04-28T11:09:57;20.50;99.90
40848;DHT22;26570;50.962;5.340;2023-04-28T11:16:05;20.90;99.90
40848;DHT22;26570;50.962;5.340;2023-04-28T11:19:01;21.10;99.90
40848;DHT22;26570;50.962;5.340;2023-04-28T11:21:50;21.30;99.90
40848;DHT22;26570;50.962;5.340;2023-04-28T11:24:36;21.40;99.90
40848;DHT22;26570;50.962;5.340;2023-04-28T11:27:29;21.20;99.90
40848;DHT22;26570;50.962;5.340;2023-04-28T11:30:20;21.20;99.90
40848;DHT22;26570;50.962;5.340;2023-04-28T11:33:06;20.80;99.90
40848;DHT22;26570;50.962;5.340;2023-04-28T11:35:52;20.60;99.90
40848;DHT22;26570;50.962;5.340;2023-04-28T11:38:43;20.20;99.90
40848;DHT22;26570;50.962;5.340;2023-04-28T11:41:28;20.40;99.90
40848;DHT22;26570;50.962;5.340;2023-04-28T11:44:22;20.70;99.90
40848;DHT22;26570;50.962;5.340;2023-04-28T11:47:07;20.20;99.90
40848;DHT22;26570;50.962;5.340;2023-04-28T11:49:53;19.90;99.90
40848;DHT22;26570;50.962;5.340;2023-04-28T11:52:48;20.20;99.90
40848;DHT22;26570;50.962;5.340;2023-04-28T11:55:33;20.30;99.90
40848;DHT22;26570;50.962;5.340;2023-04-28T11:58:21;20.50;99.90
40848;DHT22;26570;50.962;5.340;2023-04-28T12:01:12;20.70;99.90
40848;DHT22;26570;50.962;5.340;2023-04-28T12:04:00;20.80;99.90
40848;DHT22;26570;50.962;5.340;2023-04-28T12:06:44;20.80;99.90
40848;DHT22;26570;50.962;5.340;2023-04-28T12:09:31;21.10;99.90
40848;DHT22;26570;50.962;5.340;2023-04-28T12:12:29;21.10;99.90
40848;DHT22;26570;50.962;5.340;2023-04-28T12:15:15;20.80;99.90
40848;DHT22;26570;50.962;5.340;2023-04-28T12:18:09;20.70;99.90
40848;DHT22;26570;50.962;5.340;2023-04-28T12:20:59;20.60;99.90
40848;DHT22;26570;50.962;5.340;2023-04-28T12:23:44;20.20;99.90
40848;DHT22;26570;50.962;5.340;2023-04-28T12:26:29;19.90;99.90
40848;DHT22;26570;50.962;5.340;2023-04-28T12:29:34;19.90;99.90
40848;DHT22;26570;50.962;5.340;2023-04-28T12:32:19;20.00;99.90
40848;DHT22;26570;50.962;5.340;2023-04-28T12:35:21;19.90;99.90
40848;DHT22;26570;50.962;5.340;2023-04-28T12:38:10;20.10;99.90
40848;DHT22;26570;50.962;5.340;2023-04-28T12:40:59;20.00;99.90
40848;DHT22;26570;50.962;5.340;2023-04-28T12:43:44;20.20;99.90
40848;DHT22;26570;50.962;5.340;2023-04-28T12:46:29;20.30;99.90
40848;DHT22;26570;50.962;5.340;2023-04-28T12:49:14;20.40;99.90
40848;DHT22;26570;50.962;5.340;2023-04-28T12:52:00;20.60;99.90
40848;DHT22;26570;50.962;5.340;2023-04-28T12:54:45;20.40;99.90
40848;DHT22;26570;50.962;5.340;2023-04-28T12:57:37;20.00;99.90
40848;DHT22;26570;50.962;5.340;2023-04-28T13:00:22;19.80;99.90
40848;DHT22;26570;50.962;5.340;2023-04-28T13:03:08;19.60;99.90
40848;DHT22;26570;50.962;5.340;2023-04-28T13:05:53;19.60;99.90
40848;DHT22;26570;50.962;5.340;2023-04-28T13:08:38;19.80;99.90
40848;DHT22;26570;50.962;5.340;2023-04-28T13:11:23;20.10;99.90
40848;DHT22;26570;50.962;5.340;2023-04-28T13:14:10;20.00;99.90
40848;DHT22;26570;50.962;5.340;2023-04-28T13:16:56;19.60;99.90
40848;DHT22;26570;50.962;5.340;2023-04-28T13:19:42;19.50;99.90
40848;DHT22;26570;50.962;5.340;2023-04-28T13:22:27;19.20;99.90
40848;DHT22;26570;50.962;5.340;2023-04-28T13:25:13;19.10;99.90
40848;DHT22;26570;50.962;5.340;2023-04-28T13:27:58;19.20;99.90
40848;DHT22;26570;50.962;5.340;2023-04-28T13:30:44;19.40;99.90
40848;DHT22;26570;50.962;5.340;2023-04-28T13:33:29;19.60;99.90
40848;DHT22;26570;50.962;5.340;2023-04-28T13:36:14;19.50;99.90
40848;DHT22;26570;50.962;5.340;2023-04-28T13:39:00;19.50;99.90
40848;DHT22;26570;50.962;5.340;2023-04-28T13:41:45;18.90;99.90
40848;DHT22;26570;50.962;5.340;2023-04-28T13:44:30;18.50;99.90
40848;DHT22;26570;50.962;5.340;2023-04-28T13:47:15;18.50;99.90
40848;DHT22;26570;50.962;5.340;2023-04-28T13:50:01;18.50;99.90
40848;DHT22;26570;50.962;5.340;2023-04-28T13:52:47;18.50;99.90
40848;DHT22;26570;50.962;5.340;2023-04-28T13:55:32;18.50;99.90
40848;DHT22;26570;50.962;5.340;2023-04-28T13:58:17;18.60;99.90
40848;DHT22;26570;50.962;5.340;2023-04-28T14:01:02;18.70;99.90
40848;DHT22;26570;50.962;5.340;2023-04-28T14:03:48;18.20;99.90
40848;DHT22;26570;50.962;5.340;2023-04-28T14:06:33;17.90;99.90
40848;DHT22;26570;50.962;5.340;2023-04-28T14:09:18;17.80;99.90
40848;DHT22;26570;50.962;5.340;2023-04-28T14:12:04;17.90;99.90
40848;DHT22;26570;50.962;5.340;2023-04-28T14:14:49;18.10;99.90
40848;DHT22;26570;50.962;5.340;2023-04-28T14:17:35;17.90;99.90
40848;DHT22;26570;50.962;5.340;2023-04-28T14:20:20;18.00;99.90
40848;DHT22;26570;50.962;5.340;2023-04-28T14:23:05;17.70;99.90
40848;DHT22;26570;50.962;5.340;2023-04-28T14:25:51;17.90;99.90
40848;DHT22;26570;50.962;5.340;2023-04-28T14:28:42;18.20;99.90
40848;DHT22;26570;50.962;5.340;2023-04-28T14:31:27;18.10;99.90
40848;DHT22;26570;50.962;5.340;2023-04-28T14:34:13;18.30;99.90
40848;DHT22;26570;50.962;5.340;2023-04-28T14:36:58;18.20;99.90
40848;DHT22;26570;50.962;5.340;2023-04-28T14:39:44;17.90;99.90
40848;DHT22;26570;50.962;5.340;2023-04-28T14:42:32;17.90;99.90
40848;DHT22;26570;50.962;5.340;2023-04-28T14:45:19;17.80;99.90
40848;DHT22;26570;50.962;5.340;2023-04-28T14:48:04;17.90;99.90
40848;DHT22;26570;50.962;5.340;2023-04-28T14:50:51;17.50;99.90
40848;DHT22;26570;50.962;5.340;2023-04-28T14:53:36;17.20;99.90
40848;DHT22;26570;50.962;5.340;2023-04-28T14:56:21;17.20;99.90
40848;DHT22;26570;50.962;5.340;2023-04-28T14:59:07;16.90;99.90
40848;DHT22;26570;50.962;5.340;2023-04-28T15:01:52;17.00;99.90
40848;DHT22;26570;50.962;5.340;2023-04-28T15:04:38;17.10;99.90
40848;DHT22;26570;50.962;5.340;2023-04-28T15:07:23;17.00;99.90
40848;DHT22;26570;50.962;5.340;2023-04-28T15:10:12;17.10;99.90
40848;DHT22;26570;50.962;5.340;2023-04-28T15:12:57;17.10;99.90
40848;DHT22;26570;50.962;5.340;2023-04-28T15:15:42;17.10;99.90
40848;DHT22;26570;50.962;5.340;2023-04-28T15:18:27;16.90;99.90
40848;DHT22;26570;50.962;5.340;2023-04-28T15:21:12;17.00;99.90
40848;DHT22;26570;50.962;5.340;2023-04-28T15:23:57;17.20;99.90
40848;DHT22;26570;50.962;5.340;2023-04-28T15:26:43;17.20;99.90
40848;DHT22;26570;50.962;5.340;2023-04-28T15:29:28;17.00;99.90
40848;DHT22;26570;50.962;5.340;2023-04-28T15:32:13;17.00;99.90
40848;DHT22;26570;50.962;5.340;2023-04-28T15:34:59;16.90;99.90
40848;DHT22;26570;50.962;5.340;2023-04-28T15:37:46;17.00;99.90
40848;DHT22;26570;50.962;5.340;2023-04-28T15:40:31;17.10;99.90
40848;DHT22;26570;50.962;5.340;2023-04-28T15:43:16;16.80;99.90
40848;DHT22;26570;50.962;5.340;2023-04-28T15:46:01;16.90;99.90
40848;DHT22;26570;50.962;5.340;2023-04-28T15:48:47;16.90;99.90
40848;DHT22;26570;50.962;5.340;2023-04-28T15:51:33;17.00;99.90
40848;DHT22;26570;50.962;5.340;2023-04-28T15:54:21;17.30;99.90
40848;DHT22;26570;50.962;5.340;2023-04-28T15:57:05;17.30;99.90
40848;DHT22;26570;50.962;5.340;2023-04-28T15:59:51;17.30;99.90
40848;DHT22;26570;50.962;5.340;2023-04-28T16:02:37;17.00;99.90
40848;DHT22;26570;50.962;5.340;2023-04-28T16:05:22;17.20;99.90
40848;DHT22;26570;50.962;5.340;2023-04-28T16:08:08;17.00;99.90
40848;DHT22;26570;50.962;5.340;2023-04-28T16:10:52;17.00;99.90
40848;DHT22;26570;50.962;5.340;2023-04-28T16:13:37;17.20;99.90
40848;DHT22;26570;50.962;5.340;2023-04-28T16:16:23;17.30;99.90
40848;DHT22;26570;50.962;5.340;2023-04-28T16:19:08;17.30;99.90
40848;DHT22;26570;50.962;5.340;2023-04-28T16:21:54;17.30;99.90
40848;DHT22;26570;50.962;5.340;2023-04-28T16:24:38;17.40;99.90
40848;DHT22;26570;50.962;5.340;2023-04-28T16:27:27;17.60;99.90
40848;DHT22;26570;50.962;5.340;2023-04-28T16:30:12;17.80;99.90
40848;DHT22;26570;50.962;5.340;2023-04-28T16:32:58;17.60;99.90
40848;DHT22;26570;50.962;5.340;2023-04-28T16:35:43;17.30;99.90
40848;DHT22;26570;50.962;5.340;2023-04-28T16:38:29;17.10;99.90
40848;DHT22;26570;50.962;5.340;2023-04-28T16:41:15;17.20;99.90
40848;DHT22;26570;50.962;5.340;2023-04-28T16:44:01;17.40;99.90
40848;DHT22;26570;50.962;5.340;2023-04-28T16:46:46;17.50;99.90
40848;DHT22;26570;50.962;5.340;2023-04-28T16:49:31;17.80;99.90
40848;DHT22;26570;50.962;5.340;2023-04-28T16:52:22;17.80;99.90
40848;DHT22;26570;50.962;5.340;2023-04-28T16:55:07;17.80;99.90
40848;DHT22;26570;50.962;5.340;2023-04-28T16:57:53;17.70;99.90
40848;DHT22;26570;50.962;5.340;2023-04-28T17:00:38;17.70;99.90
40848;DHT22;26570;50.962;5.340;2023-04-28T17:03:23;17.50;99.90
40848;DHT22;26570;50.962;5.340;2023-04-28T17:06:08;17.40;99.90
40848;DHT22;26570;50.962;5.340;2023-04-28T17:08:54;17.40;99.90
40848;DHT22;26570;50.962;5.340;2023-04-28T17:11:40;17.60;99.90
40848;DHT22;26570;50.962;5.340;2023-04-28T17:14:25;17.30;99.90
40848;DHT22;26570;50.962;5.340;2023-04-28T17:17:10;17.10;99.90
40848;DHT22;26570;50.962;5.340;2023-04-28T17:19:55;17.20;99.90
40848;DHT22;26570;50.962;5.340;2023-04-28T17:22:40;17.30;99.90
40848;DHT22;26570;50.962;5.340;2023-04-28T17:25:25;17.30;99.90
40848;DHT22;26570;50.962;5.340;2023-04-28T17:28:10;17.20;99.90
40848;DHT22;26570;50.962;5.340;2023-04-28T17:30:56;17.20;99.90
40848;DHT22;26570;50.962;5.340;2023-04-28T17:33:41;17.30;99.90
40848;DHT22;26570;50.962;5.340;2023-04-28T17:36:26;17.30;99.90
40848;DHT22;26570;50.962;5.340;2023-04-28T17:39:12;17.30;99.90
40848;DHT22;26570;50.962;5.340;2023-04-28T17:41:57;17.20;99.90
40848;DHT22;26570;50.962;5.340;2023-04-28T17:44:42;17.10;99.90
40848;DHT22;26570;50.962;5.340;2023-04-28T17:47:27;17.10;99.90
40848;DHT22;26570;50.962;5.340;2023-04-28T17:50:13;17.10;99.90
40848;DHT22;26570;50.962;5.340;2023-04-28T17:52:58;16.90;99.90
40848;DHT22;26570;50.962;5.340;2023-04-28T17:55:43;16.80;99.90
40848;DHT22;26570;50.962;5.340;2023-04-28T17:58:29;16.60;99.90
40848;DHT22;26570;50.962;5.340;2023-04-28T18:01:16;16.60;99.90
40848;DHT22;26570;50.962;5.340;2023-04-28T18:04:02;16.50;99.90
40848;DHT22;26570;50.962;5.340;2023-04-28T18:06:47;16.40;99.90
40848;DHT22;26570;50.962;5.340;2023-04-28T18:09:32;16.10;99.90
40848;DHT22;26570;50.962;5.340;2023-04-28T18:12:18;16.10;99.90
40848;DHT22;26570;50.962;5.340;2023-04-28T18:15:04;16.10;99.90
40848;DHT22;26570;50.962;5.340;2023-04-28T18:17:49;16.20;99.90
40848;DHT22;26570;50.962;5.340;2023-04-28T18:20:34;16.10;99.90
40848;DHT22;26570;50.962;5.340;2023-04-28T18:23:20;16.10;99.90
40848;DHT22;26570;50.962;5.340;2023-04-28T18:26:05;15.90;99.90
40848;DHT22;26570;50.962;5.340;2023-04-28T18:28:50;15.90;99.90
40848;DHT22;26570;50.962;5.340;2023-04-28T18:31:35;16.00;99.90
40848;DHT22;26570;50.962;5.340;2023-04-28T18:34:21;16.00;99.90
40848;DHT22;26570;50.962;5.340;2023-04-28T18:37:07;16.00;99.90
40848;DHT22;26570;50.962;5.340;2023-04-28T18:39:56;16.00;99.90
40848;DHT22;26570;50.962;5.340;2023-04-28T18:42:42;15.70;99.90
40848;DHT22;26570;50.962;5.340;2023-04-28T18:45:33;15.50;99.90
40848;DHT22;26570;50.962;5.340;2023-04-28T18:48:20;15.40;99.90
40848;DHT22;26570;50.962;5.340;2023-04-28T18:51:05;15.50;99.90
40848;DHT22;26570;50.962;5.340;2023-04-28T18:53:51;15.50;99.90
40848;DHT22;26570;50.962;5.340;2023-04-28T18:56:36;15.60;99.90
40848;DHT22;26570;50.962;5.340;2023-04-28T18:59:21;15.50;99.90
40848;DHT22;26570;50.962;5.340;2023-04-28T19:02:09;15.50;99.90
40848;DHT22;26570;50.962;5.340;2023-04-28T19:04:54;15.40;99.90
40848;DHT22;26570;50.962;5.340;2023-04-28T19:07:41;15.30;99.90
40848;DHT22;26570;50.962;5.340;2023-04-28T19:10:26;15.50;99.90
40848;DHT22;26570;50.962;5.340;2023-04-28T19:13:11;15.50;99.90
40848;DHT22;26570;50.962;5.340;2023-04-28T19:15:58;15.50;99.90
40848;DHT22;26570;50.962;5.340;2023-04-28T19:18:43;15.50;99.90
40848;DHT22;26570;50.962;5.340;2023-04-28T20:13:55;14.50;99.90
40848;DHT22;26570;50.962;5.340;2023-04-28T20:25:45;14.50;99.90
40848;DHT22;26570;50.962;5.340;2023-04-28T20:29:18;14.30;99.90
40848;DHT22;26570;50.962;5.340;2023-04-28T20:35:58;14.50;99.90
40848;DHT22;26570;50.962;5.340;2023-04-28T20:38:51;14.40;99.90
40848;DHT22;26570;50.962;5.340;2023-04-28T20:42:56;14.40;99.90
40848;DHT22;26570;50.962;5.340;2023-04-28T20:46:47;14.50;99.90
40848;DHT22;26570;50.962;5.340;2023-04-28T20:50:35;14.10;99.90
40848;DHT22;26570;50.962;5.340;2023-04-28T20:54:04;14.00;99.90
40848;DHT22;26570;50.962;5.340;2023-04-28T20:57:37;14.10;99.90
40848;DHT22;26570;50.962;5.340;2023-04-28T21:01:22;14.10;99.90
40848;DHT22;26570;50.962;5.340;2023-04-28T21:05:15;14.10;99.90
40848;DHT22;26570;50.962;5.340;2023-04-28T21:09:10;13.90;99.90
40848;DHT22;26570;50.962;5.340;2023-04-28T21:20:46;14.00;99.90
40848;DHT22;26570;50.962;5.340;2023-04-28T21:28:06;14.10;99.90
40848;DHT22;26570;50.962;5.340;2023-04-28T21:39:59;13.90;99.90
40848;DHT22;26570;50.962;5.340;2023-04-28T21:43:37;13.80;99.90
40848;DHT22;26570;50.962;5.340;2023-04-28T21:51:36;13.60;99.90
40848;DHT22;26570;50.962;5.340;2023-04-28T22:11:22;13.30;99.90
40848;DHT22;26570;50.962;5.340;2023-04-28T22:30:44;13.70;99.90
40848;DHT22;26570;50.962;5.340;2023-04-28T22:49:46;13.20;99.90
40848;DHT22;26570;50.962;5.340;2023-04-28T22:56:23;13.00;99.90
